Mullins Prairie, Texas
Current Conditions -  °F | °C
As of 6:15 AM on Sunday 23 Nov 2014 (Local Time) from K3T5 Reporting Station
Overcast Overcast  
Wind Chill: 60°   Ceiling: 400
Heat Index: 60°   Visibility: 10mi
Dew Point: 59°   Wind: 5mph
Humidity: 97%   Direction: 250°WSW
Pressure: 29.65"   Gusts: NA
Location:  29.8569°N, 96.9311°W
Report Text: K3T5 231215Z AUTO 25004KT 10SM OVC004 15/15 A2965 RMK AO2 T01540149
Loading
Personal Weather Stations






























Interactive Weather Map New forecast layout! Learn more

10-Day Weather Forecast

Advertisements
Track Severe Weather on mobile